Time;durP1;ratioP1;P1;durP2;ratioP2;P2;SDS_P1;SDS_P2;PMS_P1;PMS_P2;Temp;Humidity;BMP_temperature;BMP_pressure;BME280_temperature;BME280_humidity;BME280_pressure;Samples;Min_cycle;Max_cycle;Signal;HPM_P1;HPM_P2
2024/02/21 00:01:42;;;;;;;10.18;3.30;;;;;;;;;;5076564;28;20404;-62
2024/02/21 00:04:09;;;;;;;18.63;3.75;;;;;;;;;;5084332;28;20051;-62
2024/02/21 00:06:35;;;;;;;12.68;3.42;;;;;;;;;;5078037;28;20040;-62
2024/02/21 00:09:01;;;;;;;19.75;4.78;;;;;;;;;;5074328;28;20043;-62
2024/02/21 00:11:28;;;;;;;13.45;3.67;;;;;;;;;;5075181;28;20051;-61
2024/02/21 00:13:54;;;;;;;15.07;4.25;;;;;;;;;;5078580;28;20035;-62
2024/02/21 00:16:20;;;;;;;15.93;4.05;;;;;;;;;;5063869;28;20036;-62
2024/02/21 00:18:47;;;;;;;14.50;3.95;;;;;;;;;;5077228;28;20422;-62
2024/02/21 00:21:17;;;;;;;12.77;3.88;;;;;;;;;;5080954;28;20491;-62
2024/02/21 00:23:47;;;;;;;19.38;5.15;;;;;;;;;;5077622;28;20044;-62
2024/02/21 00:26:14;;;;;;;;;;;;;;;;;;5081208;28;20039;-62
2024/02/21 00:28:40;;;;;;;14.15;3.60;;;;;;;;;;5074467;28;19931;-62
2024/02/21 00:31:06;;;;;;;13.85;3.83;;;;;;;;;;5090389;28;20070;-62
2024/02/21 00:33:32;;;;;;;12.80;3.65;;;;;;;;;;5085719;28;20044;-62
2024/02/21 00:35:58;;;;;;;16.38;4.45;;;;;;;;;;5085026;28;20043;-61
2024/02/21 00:38:24;;;;;;;15.20;3.83;;;;;;;;;;5083836;28;20040;-62
2024/02/21 00:40:50;;;;;;;14.00;3.53;;;;;;;;;;5072570;28;20430;-62
2024/02/21 00:43:16;;;;;;;13.60;4.13;;;;;;;;;;5078823;28;20033;-62
2024/02/21 00:45:43;;;;;;;16.33;3.95;;;;;;;;;;5072750;28;20430;-62
2024/02/21 00:48:09;;;;;;;25.95;4.00;;;;;;;;;;5072649;28;20036;-63
2024/02/21 00:50:37;;;;;;;10.75;3.83;;;;;;;;;;5078516;28;20044;-63
2024/02/21 00:53:03;;;;;;;12.35;3.78;;;;;;;;;;5078746;28;20052;-63
2024/02/21 00:55:29;;;;;;;12.15;3.90;;;;;;;;;;5072757;28;20040;-63
2024/02/21 00:57:55;;;;;;;13.27;3.33;;;;;;;;;;5080671;28;20029;-63
2024/02/21 01:00:22;;;;;;;11.07;3.42;;;;;;;;;;5078476;28;20039;-63
2024/02/21 01:02:48;;;;;;;13.00;4.30;;;;;;;;;;5079102;28;20058;-63
2024/02/21 01:05:14;;;;;;;14.13;3.88;;;;;;;;;;5073139;28;20064;-62
2024/02/21 01:07:40;;;;;;;15.70;3.90;;;;;;;;;;5074032;28;20041;-62
2024/02/21 01:10:07;;;;;;;13.68;4.47;;;;;;;;;;5072164;28;20407;-62
2024/02/21 01:12:33;;;;;;;15.82;3.72;;;;;;;;;;5077699;28;20043;-61
2024/02/21 01:14:59;;;;;;;11.02;4.38;;;;;;;;;;5078765;28;20028;-62
2024/02/21 01:17:25;;;;;;;15.98;3.97;;;;;;;;;;5076970;28;20024;-62
2024/02/21 01:19:51;;;;;;;12.32;3.83;;;;;;;;;;5078083;28;20060;-62
2024/02/21 01:22:18;;;;;;;13.60;3.83;;;;;;;;;;5077573;27;20044;-62
2024/02/21 01:24:44;;;;;;;15.65;4.40;;;;;;;;;;5072487;28;20063;-63
2024/02/21 01:27:10;;;;;;;16.02;4.18;;;;;;;;;;5075528;28;20118;-63
2024/02/21 01:29:36;;;;;;;11.32;3.75;;;;;;;;;;5075661;28;20071;-63
2024/02/21 01:32:02;;;;;;;17.25;3.97;;;;;;;;;;5086393;28;20043;-63
2024/02/21 01:34:28;;;;;;;10.82;3.97;;;;;;;;;;5081309;28;20036;-63
2024/02/21 01:36:54;;;;;;;18.77;3.97;;;;;;;;;;5086116;28;20542;-62
2024/02/21 01:39:20;;;;;;;14.82;3.95;;;;;;;;;;5073331;28;20480;-62
2024/02/21 01:41:46;;;;;;;10.05;3.55;;;;;;;;;;5092549;27;20059;-63
2024/02/21 01:44:12;;;;;;;11.20;3.72;;;;;;;;;;5072182;28;20040;-62
2024/02/21 01:46:38;;;;;;;13.48;3.58;;;;;;;;;;5076767;28;20036;-62
2024/02/21 01:49:05;;;;;;;7.38;3.42;;;;;;;;;;5073681;28;20048;-62
2024/02/21 01:51:31;;;;;;;17.98;4.00;;;;;;;;;;5077669;28;20032;-63
2024/02/21 01:53:58;;;;;;;18.92;5.20;;;;;;;;;;5081153;28;20041;-62
2024/02/21 01:56:24;;;;;;;12.60;3.65;;;;;;;;;;5082109;28;20039;-63
2024/02/21 01:58:51;;;;;;;19.58;4.45;;;;;;;;;;5080528;28;20032;-63
2024/02/21 02:01:17;;;;;;;17.92;4.78;;;;;;;;;;5073428;28;20600;-63
2024/02/21 02:03:46;;;;;;;14.95;3.55;;;;;;;;;;5073480;28;20056;-63
2024/02/21 02:06:12;;;;;;;12.45;3.65;;;;;;;;;;5072183;28;20040;-62
2024/02/21 02:08:38;;;;;;;14.73;3.83;;;;;;;;;;5084203;28;20047;-63
2024/02/21 02:11:04;;;;;;;16.15;3.85;;;;;;;;;;5073966;28;20047;-63
2024/02/21 02:13:30;;;;;;;15.52;3.97;;;;;;;;;;5074658;28;20036;-63
2024/02/21 02:15:57;;;;;;;15.65;3.85;;;;;;;;;;5074248;28;20502;-62
2024/02/21 02:18:23;;;;;;;15.70;4.15;;;;;;;;;;5074022;28;20051;-63
2024/02/21 02:20:49;;;;;;;12.23;4.07;;;;;;;;;;5080904;28;20051;-63
2024/02/21 02:23:34;;;;;;;17.45;5.07;;;;;;;;;;5075774;28;20398;-63
2024/02/21 02:26:01;;;;;;;16.17;5.70;;;;;;;;;;5078117;28;20392;-64
2024/02/21 02:28:27;;;;;;;19.48;4.65;;;;;;;;;;5079897;28;20048;-63
2024/02/21 02:30:53;;;;;;;19.00;4.65;;;;;;;;;;5072798;28;20048;-63
2024/02/21 02:33:19;;;;;;;14.43;4.75;;;;;;;;;;5075360;28;20047;-63
2024/02/21 02:35:45;;;;;;;18.30;4.82;;;;;;;;;;5082639;28;20519;-63
2024/02/21 02:38:13;;;;;;;13.85;3.90;;;;;;;;;;5079332;28;20051;-62
2024/02/21 02:40:40;;;;;;;14.13;4.60;;;;;;;;;;5072435;28;20040;-62
2024/02/21 02:43:06;;;;;;;17.02;4.78;;;;;;;;;;5071290;28;20045;-62
2024/02/21 02:45:33;;;;;;;16.05;3.97;;;;;;;;;;5072251;28;20399;-61
2024/02/21 02:47:59;;;;;;;19.08;4.22;;;;;;;;;;5077554;28;20044;-62
2024/02/21 02:50:27;;;;;;;22.05;5.20;;;;;;;;;;5074620;28;20506;-62
2024/02/21 02:52:54;;;;;;;12.70;3.67;;;;;;;;;;5073609;28;20495;-62
2024/02/21 02:55:20;;;;;;;12.60;3.85;;;;;;;;;;5085850;28;20411;-62
2024/02/21 02:57:46;;;;;;;19.80;4.55;;;;;;;;;;5077837;28;20043;-62
2024/02/21 03:00:14;;;;;;;13.25;3.78;;;;;;;;;;5077045;28;20028;-62
2024/02/21 03:02:45;;;;;;;12.52;3.40;;;;;;;;;;5076920;28;20403;-62
2024/02/21 03:05:13;;;;;;;10.13;3.20;;;;;;;;;;5081490;28;20032;-62
2024/02/21 03:07:39;;;;;;;16.50;3.40;;;;;;;;;;5075376;28;20065;-61
2024/02/21 03:10:06;;;;;;;12.02;3.70;;;;;;;;;;5079844;28;20487;-63
2024/02/21 03:12:32;;;;;;;11.60;3.53;;;;;;;;;;5075455;28;20037;-64
2024/02/21 03:14:58;;;;;;;12.88;3.30;;;;;;;;;;5078290;28;20024;-64
2024/02/21 03:17:26;;;;;;;17.60;4.13;;;;;;;;;;5078359;28;20023;-63
2024/02/21 03:19:53;;;;;;;12.70;3.45;;;;;;;;;;5076535;28;20036;-64
2024/02/21 03:22:19;;;;;;;23.42;3.10;;;;;;;;;;5082354;28;20047;-62
2024/02/21 03:24:45;;;;;;;15.40;3.63;;;;;;;;;;5083473;28;20051;-61
2024/02/21 03:27:12;;;;;;;10.52;3.30;;;;;;;;;;5086577;28;20062;-62
2024/02/21 03:29:38;;;;;;;9.05;3.35;;;;;;;;;;5074719;28;20037;-62
2024/02/21 03:32:04;;;;;;;10.82;3.60;;;;;;;;;;5073357;28;20153;-62
2024/02/21 03:34:30;;;;;;;11.75;4.35;;;;;;;;;;5083188;28;20051;-62
2024/02/21 03:36:57;;;;;;;14.52;4.65;;;;;;;;;;5076007;28;20032;-63
2024/02/21 03:39:23;;;;;;;14.32;3.50;;;;;;;;;;5075736;28;20032;-63
2024/02/21 03:41:49;;;;;;;10.30;4.00;;;;;;;;;;5076309;28;20454;-63
2024/02/21 03:44:15;;;;;;;13.57;4.70;;;;;;;;;;5074805;28;20460;-64
2024/02/21 03:46:41;;;;;;;18.52;3.38;;;;;;;;;;5079331;28;20048;-63
2024/02/21 03:49:07;;;;;;;11.85;3.63;;;;;;;;;;5082942;28;20048;-63
2024/02/21 03:51:33;;;;;;;10.00;3.28;;;;;;;;;;5083500;28;20036;-64
2024/02/21 03:53:59;;;;;;;12.27;3.83;;;;;;;;;;5084284;28;20052;-62
2024/02/21 03:56:25;;;;;;;12.85;3.75;;;;;;;;;;5073833;28;20036;-63
2024/02/21 03:58:51;;;;;;;11.48;3.92;;;;;;;;;;5081041;28;20048;-62
2024/02/21 04:01:17;;;;;;;8.95;2.95;;;;;;;;;;5077724;28;20048;-63
2024/02/21 04:03:44;;;;;;;10.82;3.60;;;;;;;;;;5076189;28;20060;-62
2024/02/21 04:06:10;;;;;;;9.82;3.40;;;;;;;;;;5077805;28;20048;-63
2024/02/21 04:08:36;;;;;;;14.20;3.17;;;;;;;;;;5084252;28;20039;-63
2024/02/21 04:11:03;;;;;;;14.52;3.25;;;;;;;;;;5078323;28;20063;-63
2024/02/21 04:13:29;;;;;;;9.40;3.10;;;;;;;;;;5071530;28;20040;-63
2024/02/21 04:15:55;;;;;;;9.77;3.42;;;;;;;;;;5086497;28;20052;-65
2024/02/21 04:18:21;;;;;;;10.68;3.38;;;;;;;;;;5088666;28;20035;-62
2024/02/21 04:20:47;;;;;;;12.65;3.28;;;;;;;;;;5086241;28;20052;-64
2024/02/21 04:23:14;;;;;;;17.73;3.67;;;;;;;;;;5076404;28;20036;-63
2024/02/21 04:25:40;;;;;;;9.95;3.40;;;;;;;;;;5084044;28;20475;-63
2024/02/21 04:28:06;;;;;;;16.05;3.25;;;;;;;;;;5084200;28;20024;-63
2024/02/21 04:30:32;;;;;;;8.52;2.90;;;;;;;;;;5076841;28;20044;-64
2024/02/21 04:32:58;;;;;;;11.65;3.53;;;;;;;;;;5093862;28;20046;-62
2024/02/21 04:35:24;;;;;;;12.07;3.42;;;;;;;;;;5073786;28;20032;-63
2024/02/21 04:37:50;;;;;;;12.85;3.10;;;;;;;;;;5073811;28;20055;-63
2024/02/21 04:40:16;;;;;;;7.80;3.08;;;;;;;;;;5070992;28;20032;-63
2024/02/21 04:42:44;;;;;;;11.90;2.83;;;;;;;;;;5078344;28;20519;-65
2024/02/21 04:45:10;;;;;;;16.08;3.70;;;;;;;;;;5075054;28;20468;-64
2024/02/21 04:47:36;;;;;;;9.95;3.38;;;;;;;;;;5076565;28;20036;-64
2024/02/21 04:50:02;;;;;;;8.65;3.60;;;;;;;;;;5084520;28;20388;-63
2024/02/21 04:52:29;;;;;;;8.07;2.92;;;;;;;;;;5083559;28;20044;-63
2024/02/21 04:54:56;;;;;;;9.95;2.97;;;;;;;;;;5079446;28;20044;-62
2024/02/21 04:57:22;;;;;;;9.77;3.30;;;;;;;;;;5084619;28;20036;-63
2024/02/21 04:59:48;;;;;;;18.73;4.53;;;;;;;;;;5080600;28;20530;-63
2024/02/21 05:02:14;;;;;;;12.82;3.85;;;;;;;;;;5072341;28;20059;-64
2024/02/21 05:04:41;;;;;;;11.95;4.13;;;;;;;;;;5077138;28;20048;-63
2024/02/21 05:07:07;;;;;;;7.68;2.70;;;;;;;;;;5074638;28;20511;-62
2024/02/21 05:09:34;;;;;;;9.52;2.92;;;;;;;;;;5074684;28;20048;-63
2024/02/21 05:12:00;;;;;;;13.27;3.30;;;;;;;;;;5077795;28;20035;-63
2024/02/21 05:14:29;;;;;;;10.80;3.25;;;;;;;;;;5070384;28;20051;-62
2024/02/21 05:16:55;;;;;;;9.80;2.90;;;;;;;;;;5080054;28;20040;-64
2024/02/21 05:19:21;;;;;;;8.63;3.00;;;;;;;;;;5077721;28;20146;-62
2024/02/21 05:21:47;;;;;;;11.30;2.63;;;;;;;;;;5078232;28;20035;-62
2024/02/21 05:24:13;;;;;;;7.13;2.63;;;;;;;;;;5086632;28;20040;-64
2024/02/21 05:26:39;;;;;;;7.57;2.80;;;;;;;;;;5077324;28;20056;-63
2024/02/21 05:29:05;;;;;;;10.50;2.53;;;;;;;;;;5074287;28;20384;-63
2024/02/21 05:31:51;;;;;;;10.68;2.60;;;;;;;;;;5075616;28;20380;-63
2024/02/21 05:34:18;;;;;;;10.70;3.30;;;;;;;;;;5072394;28;20486;-63
2024/02/21 05:36:44;;;;;;;12.05;3.28;;;;;;;;;;5075140;28;20034;-62
2024/02/21 05:39:10;;;;;;;7.75;2.55;;;;;;;;;;5078275;28;20032;-62
2024/02/21 05:41:36;;;;;;;7.63;2.78;;;;;;;;;;5079452;28;20483;-63
2024/02/21 05:44:03;;;;;;;10.45;2.85;;;;;;;;;;5072181;28;20459;-62
2024/02/21 05:46:29;;;;;;;19.23;5.65;;;;;;;;;;5076715;28;20388;-62
2024/02/21 05:48:55;;;;;;;14.52;4.20;;;;;;;;;;5077230;28;20356;-62
2024/02/21 05:51:21;;;;;;;8.45;3.20;;;;;;;;;;5080176;28;20034;-62
2024/02/21 05:53:47;;;;;;;8.95;3.20;;;;;;;;;;5074247;28;20055;-61
2024/02/21 05:56:14;;;;;;;8.75;3.00;;;;;;;;;;5073623;28;20044;-62
2024/02/21 05:58:40;;;;;;;9.50;2.70;;;;;;;;;;5078729;28;20052;-62
2024/02/21 06:01:07;;;;;;;7.97;3.05;;;;;;;;;;5069720;28;20460;-63
2024/02/21 06:03:34;;;;;;;10.68;3.03;;;;;;;;;;5077224;28;20032;-62
2024/02/21 06:06:00;;;;;;;9.27;3.78;;;;;;;;;;5085805;28;20039;-63
2024/02/21 06:08:26;;;;;;;8.93;3.15;;;;;;;;;;5078176;28;20058;-60
2024/02/21 06:10:54;;;;;;;8.30;3.15;;;;;;;;;;5081310;28;20044;-60
2024/02/21 06:13:21;;;;;;;12.68;3.17;;;;;;;;;;5075429;28;20076;-60
2024/02/21 06:15:48;;;;;;;7.55;3.60;;;;;;;;;;5084763;28;20047;-60
2024/02/21 06:18:14;;;;;;;12.45;3.28;;;;;;;;;;5081601;28;20035;-59
2024/02/21 06:20:40;;;;;;;13.27;3.20;;;;;;;;;;5090745;28;20059;-60
2024/02/21 06:23:06;;;;;;;14.27;3.03;;;;;;;;;;5080476;28;20032;-59
2024/02/21 06:25:32;;;;;;;11.95;3.03;;;;;;;;;;5081175;28;20044;-59
2024/02/21 06:27:59;;;;;;;10.20;3.53;;;;;;;;;;5076661;28;20036;-60
2024/02/21 06:30:25;;;;;;;8.25;3.90;;;;;;;;;;5072314;28;20036;-59
2024/02/21 06:32:51;;;;;;;7.63;3.08;;;;;;;;;;5082695;28;20068;-59
2024/02/21 06:35:20;;;;;;;8.25;3.25;;;;;;;;;;5079763;28;20048;-60
2024/02/21 06:37:50;;;;;;;7.88;2.55;;;;;;;;;;5078753;28;20412;-60
2024/02/21 06:40:17;;;;;;;15.50;4.05;;;;;;;;;;5079056;28;20139;-60
2024/02/21 06:42:43;;;;;;;8.75;3.05;;;;;;;;;;5076423;28;20050;-60
2024/02/21 06:45:10;;;;;;;7.90;2.72;;;;;;;;;;5078288;28;20044;-60
2024/02/21 06:47:36;;;;;;;14.38;4.03;;;;;;;;;;5075525;28;20055;-60
2024/02/21 06:50:02;;;;;;;8.75;2.95;;;;;;;;;;5080290;28;20032;-59
2024/02/21 06:52:28;;;;;;;16.58;4.60;;;;;;;;;;5073361;28;20052;-61
2024/02/21 06:54:54;;;;;;;19.13;6.30;;;;;;;;;;5074568;28;20044;-59
2024/02/21 06:57:20;;;;;;;15.80;6.10;;;;;;;;;;5081902;28;20134;-60
2024/02/21 06:59:46;;;;;;;14.13;5.57;;;;;;;;;;5075368;28;20388;-60
2024/02/21 07:02:13;;;;;;;11.35;4.57;;;;;;;;;;5079806;28;20416;-60
2024/02/21 07:04:39;;;;;;;14.25;4.03;;;;;;;;;;5082112;28;20141;-60
2024/02/21 07:07:05;;;;;;;9.10;3.33;;;;;;;;;;5080394;28;20049;-59
2024/02/21 07:09:31;;;;;;;9.80;3.17;;;;;;;;;;5081697;28;20672;-60
2024/02/21 07:11:58;;;;;;;8.90;3.10;;;;;;;;;;5084385;28;20059;-60
2024/02/21 07:14:25;;;;;;;13.15;3.60;;;;;;;;;;5082440;28;20032;-61
2024/02/21 07:16:51;;;;;;;6.40;3.05;;;;;;;;;;5080672;28;20040;-61
2024/02/21 07:19:17;;;;;;;6.50;2.58;;;;;;;;;;5079271;28;20032;-60
2024/02/21 07:21:43;;;;;;;10.43;3.45;;;;;;;;;;5079808;28;20044;-61
2024/02/21 07:24:10;;;;;;;12.30;2.72;;;;;;;;;;5080910;28;20051;-60
2024/02/21 07:26:36;;;;;;;6.28;2.85;;;;;;;;;;5077740;28;20051;-60
2024/02/21 07:29:02;;;;;;;5.05;2.92;;;;;;;;;;5079534;28;20040;-60
2024/02/21 07:31:28;;;;;;;10.07;3.55;;;;;;;;;;5081776;28;20040;-59
2024/02/21 07:33:54;;;;;;;12.32;3.88;;;;;;;;;;5079677;28;20039;-62
2024/02/21 07:36:33;;;;;;;18.40;5.85;;;;;;;;;;5075385;28;20047;-61
2024/02/21 07:38:59;;;;;;;12.40;4.72;;;;;;;;;;5079065;28;20047;-60
2024/02/21 07:41:26;;;;;;;12.50;4.88;;;;;;;;;;5073883;28;20032;-60
2024/02/21 07:43:52;;;;;;;10.25;3.63;;;;;;;;;;5069158;28;20044;-60
2024/02/21 07:46:18;;;;;;;12.10;4.20;;;;;;;;;;5076737;28;20055;-60
2024/02/21 07:48:48;;;;;;;8.95;4.47;;;;;;;;;;5080913;28;20047;-60
2024/02/21 07:51:16;;;;;;;13.48;5.30;;;;;;;;;;5077556;28;20036;-61
2024/02/21 07:53:44;;;;;;;16.75;6.38;;;;;;;;;;5092940;28;20044;-61
2024/02/21 07:56:11;;;;;;;13.77;5.15;;;;;;;;;;5082313;28;20043;-60
2024/02/21 07:58:38;;;;;;;11.82;4.95;;;;;;;;;;5076716;28;20044;-60
2024/02/21 08:01:04;;;;;;;13.13;4.65;;;;;;;;;;5079897;28;20035;-60
2024/02/21 08:03:30;;;;;;;9.32;4.30;;;;;;;;;;5077980;28;20040;-60
2024/02/21 08:05:56;;;;;;;12.38;3.13;;;;;;;;;;5078794;28;20040;-60
2024/02/21 08:08:22;;;;;;;9.13;3.17;;;;;;;;;;5080685;28;20044;-60
2024/02/21 08:10:51;;;;;;;9.90;3.50;;;;;;;;;;5086171;28;20047;-59
2024/02/21 08:13:18;;;;;;;11.68;3.13;;;;;;;;;;5090582;28;20387;-61
2024/02/21 08:15:44;;;;;;;10.30;3.40;;;;;;;;;;5108731;27;20047;-60
2024/02/21 08:18:10;;;;;;;7.03;3.10;;;;;;;;;;5081316;28;20058;-60
2024/02/21 08:20:36;;;;;;;13.20;2.92;;;;;;;;;;5084482;28;20131;-60
2024/02/21 08:23:03;;;;;;;8.75;2.38;;;;;;;;;;5079664;28;20037;-60
2024/02/21 08:25:29;;;;;;;7.82;2.58;;;;;;;;;;5081072;28;20051;-60
2024/02/21 08:27:58;;;;;;;9.40;2.60;;;;;;;;;;5089046;28;20499;-60
2024/02/21 08:30:24;;;;;;;11.15;2.88;;;;;;;;;;5073736;28;20051;-61
2024/02/21 08:32:50;;;;;;;8.38;3.25;;;;;;;;;;5074525;28;20384;-60
2024/02/21 08:35:19;;;;;;;7.57;2.70;;;;;;;;;;5075124;28;20048;-61
2024/02/21 08:37:47;;;;;;;10.90;2.90;;;;;;;;;;5077019;28;20047;-61
2024/02/21 08:40:17;;;;;;;7.93;2.60;;;;;;;;;;5077149;28;20032;-61
2024/02/21 08:42:43;;;;;;;11.57;2.55;;;;;;;;;;5078265;28;20443;-61
2024/02/21 08:45:10;;;;;;;6.32;2.30;;;;;;;;;;5075260;28;20044;-61
2024/02/21 08:47:39;;;;;;;5.88;2.40;;;;;;;;;;5074791;28;20040;-61
2024/02/21 08:50:06;;;;;;;6.80;2.25;;;;;;;;;;5073018;28;20040;-60
2024/02/21 08:52:32;;;;;;;3.67;2.03;;;;;;;;;;5087238;28;20024;-61
2024/02/21 08:54:58;;;;;;;5.22;2.47;;;;;;;;;;5084850;28;20044;-60
2024/02/21 08:57:24;;;;;;;5.90;2.28;;;;;;;;;;5078094;28;20063;-62
2024/02/21 08:59:51;;;;;;;5.25;1.90;;;;;;;;;;5076129;28;20049;-60
2024/02/21 09:02:17;;;;;;;3.35;2.08;;;;;;;;;;5073514;28;20042;-59
2024/02/21 09:04:45;;;;;;;3.75;1.63;;;;;;;;;;5082176;28;20040;-60
2024/02/21 09:07:11;;;;;;;7.10;1.95;;;;;;;;;;5080700;28;20059;-60
2024/02/21 09:09:40;;;;;;;4.30;1.70;;;;;;;;;;5085614;28;20032;-61
2024/02/21 09:12:07;;;;;;;7.15;2.13;;;;;;;;;;5088341;28;20040;-61
2024/02/21 09:14:37;;;;;;;4.50;1.83;;;;;;;;;;5080485;28;20074;-61
2024/02/21 09:17:03;;;;;;;7.65;2.03;;;;;;;;;;5083962;28;20036;-61
2024/02/21 09:19:29;;;;;;;8.30;2.33;;;;;;;;;;5082278;28;20041;-58
2024/02/21 09:21:55;;;;;;;3.85;1.77;;;;;;;;;;5086230;28;20043;-61
2024/02/21 09:24:22;;;;;;;4.93;1.98;;;;;;;;;;5084210;28;20046;-61
2024/02/21 09:26:48;;;;;;;4.45;1.70;;;;;;;;;;5081903;28;20491;-60
2024/02/21 09:29:15;;;;;;;4.50;1.40;;;;;;;;;;5082641;28;20051;-64
2024/02/21 09:31:42;;;;;;;3.22;1.55;;;;;;;;;;5078688;28;20043;-60
2024/02/21 09:34:11;;;;;;;8.23;1.60;;;;;;;;;;5076180;28;20041;-61
2024/02/21 09:36:38;;;;;;;9.10;3.88;;;;;;;;;;5080249;28;20044;-59
2024/02/21 09:39:04;;;;;;;18.77;7.57;;;;;;;;;;5079415;28;20029;-60
2024/02/21 09:41:30;;;;;;;14.77;6.22;;;;;;;;;;5085943;28;20051;-60
2024/02/21 09:43:57;;;;;;;18.38;6.53;;;;;;;;;;5074135;28;20024;-59
2024/02/21 09:46:54;;;;;;;14.52;6.00;;;;;;;;;;5083423;28;20040;-60
2024/02/21 09:49:31;;;;;;;12.60;5.93;;;;;;;;;;5076647;28;20041;-61
2024/02/21 09:51:57;;;;;;;15.82;5.72;;;;;;;;;;5081180;28;20036;-60
2024/02/21 09:54:23;;;;;;;16.77;5.95;;;;;;;;;;5075941;28;20039;-61
2024/02/21 09:56:50;;;;;;;21.90;7.82;;;;;;;;;;5074922;28;20047;-61
2024/02/21 09:59:16;;;;;;;23.38;8.90;;;;;;;;;;5074882;28;20052;-62
2024/02/21 10:01:44;;;;;;;24.42;9.57;;;;;;;;;;5077153;28;20055;-60
2024/02/21 10:04:10;;;;;;;27.35;9.88;;;;;;;;;;5072067;28;20514;-61
2024/02/21 10:06:39;;;;;;;28.25;10.05;;;;;;;;;;5075740;28;20033;-60
2024/02/21 10:09:08;;;;;;;23.08;10.07;;;;;;;;;;5073298;28;20043;-60
2024/02/21 10:11:36;;;;;;;25.25;9.95;;;;;;;;;;5082868;28;20036;-60
2024/02/21 10:14:05;;;;;;;21.92;8.98;;;;;;;;;;5075906;28;20044;-62
2024/02/21 10:16:31;;;;;;;19.50;7.60;;;;;;;;;;5076399;28;20452;-60
2024/02/21 10:18:57;;;;;;;20.85;8.10;;;;;;;;;;5090953;28;20036;-61
2024/02/21 10:21:23;;;;;;;12.95;7.45;;;;;;;;;;5060048;28;20036;-61
2024/02/21 10:23:50;;;;;;;17.40;7.00;;;;;;;;;;5086269;28;20044;-62
2024/02/21 10:26:18;;;;;;;12.63;6.10;;;;;;;;;;5081808;28;20043;-61
2024/02/21 10:28:46;;;;;;;17.70;6.22;;;;;;;;;;5074251;28;20048;-61
2024/02/21 10:31:25;;;;;;;13.57;5.40;;;;;;;;;;5065069;28;20051;-61
2024/02/21 10:33:58;;;;;;;14.88;5.55;;;;;;;;;;5078158;28;20143;-61
2024/02/21 10:36:25;;;;;;;15.88;5.53;;;;;;;;;;5075878;28;20055;-60
2024/02/21 10:38:52;;;;;;;9.63;4.70;;;;;;;;;;5079400;28;20039;-61
2024/02/21 10:41:20;;;;;;;12.60;4.97;;;;;;;;;;5077456;28;20048;-60
2024/02/21 10:43:52;;;;;;;10.30;4.70;;;;;;;;;;5080018;28;20044;-61
2024/02/21 10:46:22;;;;;;;11.07;4.30;;;;;;;;;;5077966;28;20040;-61
2024/02/21 10:49:08;;;;;;;11.82;4.60;;;;;;;;;;5081448;28;20058;-61
2024/02/21 10:51:42;;;;;;;15.43;5.10;;;;;;;;;;5082527;28;20516;-62
2024/02/21 10:54:26;;;;;;;11.40;5.03;;;;;;;;;;5082325;28;20052;-61
2024/02/21 10:56:54;;;;;;;11.80;4.43;;;;;;;;;;5072102;28;20044;-61
2024/02/21 10:59:21;;;;;;;13.52;4.70;;;;;;;;;;5072836;28;20048;-61
2024/02/21 11:01:47;;;;;;;13.55;5.15;;;;;;;;;;5074465;28;20056;-61
2024/02/21 11:04:14;;;;;;;11.65;5.03;;;;;;;;;;5077813;28;20036;-61
2024/02/21 11:06:42;;;;;;;9.57;4.55;;;;;;;;;;5077818;28;20118;-60
2024/02/21 11:09:09;;;;;;;7.50;4.45;;;;;;;;;;5076268;28;20033;-60
2024/02/21 11:11:37;;;;;;;9.30;4.50;;;;;;;;;;5072993;28;20067;-60
2024/02/21 11:14:10;;;;;;;7.80;4.25;;;;;;;;;;5077373;28;20059;-60
2024/02/21 11:16:40;;;;;;;9.27;4.00;;;;;;;;;;5079877;28;20037;-61
2024/02/21 11:19:25;;;;;;;7.95;4.30;;;;;;;;;;5070670;28;20522;-61
2024/02/21 11:21:53;;;;;;;7.85;4.20;;;;;;;;;;5078077;28;20094;-61
2024/02/21 11:24:29;;;;;;;11.60;6.05;;;;;;;;;;5081529;28;20047;-62
2024/02/21 11:26:57;;;;;;;14.13;6.82;;;;;;;;;;5080249;28;20048;-60
2024/02/21 11:29:26;;;;;;;19.63;8.05;;;;;;;;;;5080672;28;20043;-61
2024/02/21 11:31:53;;;;;;;17.60;6.70;;;;;;;;;;5080221;28;20058;-60
2024/02/21 11:34:19;;;;;;;11.23;5.43;;;;;;;;;;5077621;28;20159;-61
2024/02/21 11:36:50;;;;;;;8.73;4.63;;;;;;;;;;5076940;28;20048;-61
2024/02/21 11:39:25;;;;;;;12.13;5.00;;;;;;;;;;5077229;28;20036;-59
2024/02/21 11:42:05;;;;;;;12.82;4.97;;;;;;;;;;5079613;28;20036;-60
2024/02/21 11:44:32;;;;;;;11.10;4.80;;;;;;;;;;5074465;28;20036;-59
2024/02/21 11:46:58;;;;;;;13.32;5.85;;;;;;;;;;5081083;28;20491;-60
2024/02/21 11:49:26;;;;;;;16.23;6.10;;;;;;;;;;5079999;28;20048;-60
2024/02/21 11:52:04;;;;;;;11.05;5.68;;;;;;;;;;5080982;28;20042;-61
2024/02/21 11:54:30;;;;;;;13.30;5.68;;;;;;;;;;5076376;28;20036;-63
2024/02/21 11:56:56;;;;;;;13.93;4.45;;;;;;;;;;5077905;28;20071;-61
2024/02/21 11:59:23;;;;;;;12.35;5.90;;;;;;;;;;5075517;28;20040;-60
2024/02/21 12:01:51;;;;;;;22.88;6.20;;;;;;;;;;5074485;28;20037;-61
2024/02/21 12:04:19;;;;;;;13.07;4.73;;;;;;;;;;5081635;28;20044;-61
2024/02/21 12:06:46;;;;;;;9.85;4.50;;;;;;;;;;5078253;28;20040;-61
2024/02/21 12:09:18;;;;;;;9.88;3.90;;;;;;;;;;5079408;28;20478;-61
2024/02/21 12:11:46;;;;;;;8.75;3.55;;;;;;;;;;5080025;28;20561;-61
2024/02/21 12:14:16;;;;;;;12.13;3.70;;;;;;;;;;5083143;28;20040;-60
2024/02/21 12:16:47;;;;;;;8.68;4.00;;;;;;;;;;5078043;28;20037;-60
2024/02/21 12:19:13;;;;;;;12.23;3.58;;;;;;;;;;5088816;28;20043;-61
2024/02/21 12:21:40;;;;;;;9.32;3.30;;;;;;;;;;5082845;28;20056;-60
2024/02/21 12:24:15;;;;;;;23.60;8.43;;;;;;;;;;5082617;28;20063;-62
2024/02/21 12:26:41;;;;;;;11.63;4.80;;;;;;;;;;5073246;28;20415;-61
2024/02/21 12:29:11;;;;;;;9.95;4.05;;;;;;;;;;5076257;28;20032;-61
2024/02/21 12:31:40;;;;;;;10.75;3.92;;;;;;;;;;5075931;28;20044;-61
2024/02/21 12:34:06;;;;;;;9.00;3.45;;;;;;;;;;5079190;28;20063;-61
2024/02/21 12:36:33;;;;;;;7.97;3.17;;;;;;;;;;5083657;28;20043;-61
2024/02/21 12:39:01;;;;;;;14.57;3.72;;;;;;;;;;5083924;28;20044;-61
2024/02/21 12:41:27;;;;;;;10.15;3.47;;;;;;;;;;5078978;28;20036;-62
2024/02/21 12:43:54;;;;;;;13.45;3.83;;;;;;;;;;5079640;28;20051;-61
2024/02/21 12:46:20;;;;;;;7.40;3.35;;;;;;;;;;5078888;28;20040;-61
2024/02/21 12:48:46;;;;;;;7.55;3.20;;;;;;;;;;5077985;28;20039;-61
2024/02/21 12:51:12;;;;;;;9.60;3.00;;;;;;;;;;5077847;28;20036;-61
2024/02/21 12:53:39;;;;;;;5.75;3.15;;;;;;;;;;5079347;28;20484;-61
2024/02/21 12:56:07;;;;;;;5.70;3.15;;;;;;;;;;5083463;28;20048;-61
2024/02/21 12:58:33;;;;;;;8.00;3.47;;;;;;;;;;5074642;28;20032;-61
2024/02/21 13:01:00;;;;;;;9.13;3.50;;;;;;;;;;5076341;28;20032;-63
2024/02/21 13:03:26;;;;;;;8.20;3.20;;;;;;;;;;5073844;28;20037;-60
2024/02/21 13:05:52;;;;;;;8.55;3.42;;;;;;;;;;5078514;28;20460;-61
2024/02/21 13:08:21;;;;;;;7.20;3.25;;;;;;;;;;5082150;28;20406;-61
2024/02/21 13:10:49;;;;;;;8.13;3.55;;;;;;;;;;5076693;28;20380;-61
2024/02/21 13:13:15;;;;;;;12.45;3.00;;;;;;;;;;5079399;28;20067;-61
2024/02/21 13:15:43;;;;;;;10.18;3.15;;;;;;;;;;5082966;28;20423;-61
2024/02/21 13:18:09;;;;;;;7.00;3.17;;;;;;;;;;5081228;28;20462;-62
2024/02/21 13:20:36;;;;;;;10.27;3.30;;;;;;;;;;5072920;28;20034;-61
2024/02/21 13:23:03;;;;;;;7.68;2.63;;;;;;;;;;5080718;28;20044;-62
2024/02/21 13:25:29;;;;;;;8.95;2.90;;;;;;;;;;5074218;28;20056;-61
2024/02/21 13:27:55;;;;;;;6.95;2.70;;;;;;;;;;5070479;28;20419;-61
2024/02/21 13:30:22;;;;;;;6.40;2.80;;;;;;;;;;5074376;28;20063;-61
2024/02/21 13:32:48;;;;;;;6.68;2.75;;;;;;;;;;5072941;28;20051;-62
2024/02/21 13:35:15;;;;;;;7.68;3.17;;;;;;;;;;5076795;28;20040;-61
2024/02/21 13:37:42;;;;;;;7.55;3.08;;;;;;;;;;5075837;28;20060;-61
2024/02/21 13:40:09;;;;;;;6.45;3.08;;;;;;;;;;5076293;28;20503;-61
2024/02/21 13:42:37;;;;;;;9.13;2.88;;;;;;;;;;5079973;28;20041;-63
2024/02/21 13:45:08;;;;;;;10.18;3.78;;;;;;;;;;5070557;28;20499;-61
2024/02/21 13:47:36;;;;;;;9.63;3.10;;;;;;;;;;5082778;28;20133;-63
2024/02/21 13:50:04;;;;;;;9.10;2.90;;;;;;;;;;5078839;28;20059;-61
2024/02/21 13:52:31;;;;;;;8.55;3.58;;;;;;;;;;5072582;28;20071;-62
2024/02/21 13:54:57;;;;;;;6.22;2.95;;;;;;;;;;5071168;28;20040;-61
2024/02/21 13:57:23;;;;;;;5.35;3.08;;;;;;;;;;5072528;28;20036;-62
2024/02/21 13:59:50;;;;;;;9.85;3.03;;;;;;;;;;5082944;28;20040;-61
2024/02/21 14:02:17;;;;;;;6.93;2.85;;;;;;;;;;5078977;28;20054;-61
2024/02/21 14:04:43;;;;;;;7.53;2.70;;;;;;;;;;5084723;28;20040;-61
2024/02/21 14:07:09;;;;;;;8.85;3.33;;;;;;;;;;5087202;28;20483;-59
2024/02/21 14:09:35;;;;;;;6.55;3.42;;;;;;;;;;5083760;28;20032;-60
2024/02/21 14:12:02;;;;;;;13.70;4.38;;;;;;;;;;5082340;28;20028;-62
2024/02/21 14:14:28;;;;;;;7.03;3.67;;;;;;;;;;5079827;28;20044;-61
2024/02/21 14:16:56;;;;;;;8.27;3.42;;;;;;;;;;5078564;28;20044;-61
2024/02/21 14:19:22;;;;;;;10.02;3.30;;;;;;;;;;5079982;28;20034;-60
2024/02/21 14:21:48;;;;;;;9.10;3.72;;;;;;;;;;5081001;28;20024;-60
2024/02/21 14:24:14;;;;;;;14.23;4.90;;;;;;;;;;5075225;28;20058;-60
2024/02/21 14:26:41;;;;;;;12.20;4.85;;;;;;;;;;5070886;28;20052;-61
2024/02/21 14:29:07;;;;;;;11.23;4.40;;;;;;;;;;5078534;28;20032;-61
2024/02/21 14:31:33;;;;;;;19.77;6.72;;;;;;;;;;5073033;28;20037;-61
2024/02/21 14:34:00;;;;;;;17.23;5.55;;;;;;;;;;5076270;28;20032;-60
2024/02/21 14:36:26;;;;;;;10.32;4.10;;;;;;;;;;5076438;28;20036;-60